Time;durP1;ratioP1;P1;durP2;ratioP2;P2;SDS_P1;SDS_P2;PMS_P1;PMS_P2;Temp;Humidity;BMP_temperature;BMP_pressure;BME280_temperature;BME280_humidity;BME280_pressure;Samples;Min_cycle;Max_cycle;Signal;HPM_P1;HPM_P2
2023/03/26 00:01:14;;;;;;;6.67;5.33;;;;;;;7.79;87.33;100311.88;5093200;28;20190;-71
2023/03/26 00:03:43;;;;;;;15.77;6.27;;;;;;;7.79;87.37;100309.22;5093279;28;20236;-72
2023/03/26 00:06:13;;;;;;;13.13;6.23;;;;;;;7.79;87.69;100314.53;5093270;28;20186;-71
2023/03/26 00:08:41;;;;;;;21.07;6.20;;;;;;;7.82;87.86;100314.34;5092888;28;20272;-71
2023/03/26 00:11:09;;;;;;;15.90;6.80;;;;;;;7.79;87.93;100319.88;5092867;28;20182;-71
2023/03/26 00:13:36;;;;;;;25.00;6.40;;;;;;;7.83;87.98;100316.06;5093467;28;20201;-71
2023/03/26 00:16:03;;;;;;;19.17;6.70;;;;;;;7.85;87.44;100308.78;5092759;28;20202;-71
2023/03/26 00:18:30;;;;;;;14.03;5.67;;;;;;;7.83;87.50;100314.25;5092837;28;20201;-71
2023/03/26 00:20:58;;;;;;;23.53;6.87;;;;;;;7.85;87.34;100308.78;5092786;28;20200;-71
2023/03/26 00:23:26;;;;;;;14.17;5.90;;;;;;;7.91;87.79;100310.19;5092722;28;20222;-71
2023/03/26 00:25:53;;;;;;;18.83;6.63;;;;;;;7.88;87.37;100298.78;5092604;28;20194;-71
2023/03/26 00:28:20;;;;;;;22.87;7.17;;;;;;;7.90;87.71;100296.00;5093038;28;20643;-71
2023/03/26 00:30:57;;;;;;;22.97;6.57;;;;;;;7.89;87.43;100297.81;5077776;28;20193;-71
2023/03/26 00:33:23;;;;;;;21.13;5.87;;;;;;;7.90;87.68;100293.31;5096469;28;20205;-70
2023/03/26 00:35:57;;;;;;;13.33;5.53;;;;;;;7.88;87.75;100298.78;5096200;28;20194;-70
2023/03/26 00:38:25;;;;;;;28.53;6.43;;;;;;;7.98;86.84;100290.16;5078076;28;20186;-70
2023/03/26 00:40:52;;;;;;;6.07;5.13;;;;;;;8.01;87.10;100287.28;5096218;28;20204;-71
2023/03/26 00:43:20;;;;;;;17.03;5.80;;;;;;;8.03;86.50;100291.56;5077960;28;20223;-71
2023/03/26 00:45:49;;;;;;;19.73;4.97;;;;;;;8.05;86.53;100289.63;5096132;28;20265;-71
2023/03/26 00:48:16;;;;;;;9.87;5.00;;;;;;;8.06;86.52;100291.34;5096380;28;20189;-71
2023/03/26 00:50:45;;;;;;;20.57;5.50;;;;;;;8.01;85.87;100292.63;5096051;28;20264;-71
2023/03/26 00:53:13;;;;;;;13.93;5.57;;;;;;;8.00;86.40;100296.25;5077799;28;20221;-71
2023/03/26 00:55:44;;;;;;;20.60;5.60;;;;;;;7.99;86.43;100290.03;5077728;28;20304;-71
2023/03/26 00:58:12;;;;;;;17.60;5.23;;;;;;;7.99;86.09;100278.53;5095936;28;20178;-72
2023/03/26 01:00:50;;;;;;;20.17;5.73;;;;;;;8.07;86.08;100290.38;5095877;28;20264;-71
2023/03/26 01:03:18;;;;;;;18.83;5.23;;;;;;;8.05;86.02;100283.47;5077655;28;20227;-71
2023/03/26 01:06:06;;;;;;;27.93;5.63;;;;;;;8.03;85.33;100280.88;5096339;28;20620;-71
2023/03/26 01:08:48;;;;;;;25.77;5.33;;;;;;;8.01;85.75;100277.47;5095695;28;20165;-71
2023/03/26 01:11:20;;;;;;;21.53;5.77;;;;;;;8.03;85.64;100282.69;5095647;28;20216;-71
2023/03/26 01:13:50;;;;;;;21.23;6.07;;;;;;;8.01;85.54;100272.13;5095844;28;20217;-71
2023/03/26 01:16:26;;;;;;;21.27;5.07;;;;;;;8.06;85.71;100269.16;5095443;28;20296;-71
2023/03/26 01:18:53;;;;;;;25.13;5.53;;;;;;;8.08;85.32;100264.56;5095818;28;20173;-71
2023/03/26 01:21:28;;;;;;;22.03;5.17;;;;;;;8.08;85.28;100260.09;5095423;28;20192;-71
2023/03/26 01:23:58;;;;;;;30.47;6.53;;;;;;;8.05;84.84;100254.97;5095352;28;20300;-70
2023/03/26 01:26:31;;;;;;;26.13;6.20;;;;;;;8.07;85.03;100258.38;5095675;28;20247;-71
2023/03/26 01:29:01;;;;;;;29.53;6.40;;;;;;;8.06;84.40;100247.81;5095353;28;20188;-71
2023/03/26 01:31:35;;;;;;;20.23;5.30;;;;;;;8.08;84.60;100253.91;5077125;28;20203;-71
2023/03/26 01:34:16;;;;;;;20.90;4.57;;;;;;;8.09;84.68;100248.47;5095078;28;20237;-70
2023/03/26 01:37:12;;;;;;;31.77;6.23;;;;;;;8.03;85.27;100251.53;5095439;28;20176;-71
2023/03/26 01:39:52;;;;;;;36.70;6.33;;;;;;;8.04;84.76;100244.41;5076950;28;20190;-71
2023/03/26 01:42:44;;;;;;;17.03;5.83;;;;;;;8.15;84.38;100247.19;5075965;28;20185;-70
2023/03/26 01:45:14;;;;;;;26.53;5.53;;;;;;;8.12;84.00;100228.72;5076830;28;20636;-70
2023/03/26 01:47:42;;;;;;;24.37;5.90;;;;;;;8.14;83.98;100233.94;5077073;28;20193;-70
2023/03/26 01:50:09;;;;;;;22.37;5.77;;;;;;;8.05;84.47;100230.97;5076726;28;20201;-71
2023/03/26 01:52:36;;;;;;;21.93;4.87;;;;;;;8.09;84.42;100235.13;5093503;28;20217;-70
2023/03/26 01:55:04;;;;;;;29.77;6.30;;;;;;;8.09;84.33;100229.81;5094946;28;20607;-71
2023/03/26 01:58:01;;;;;;;29.60;6.47;;;;;;;8.07;84.25;100220.19;5094680;28;20667;-71
2023/03/26 02:00:31;;;;;;;23.23;5.50;;;;;;;8.10;84.54;100217.31;5094649;28;20188;-71
2023/03/26 02:03:16;;;;;;;23.67;5.43;;;;;;;8.10;85.06;100220.81;5076470;28;20346;-71
2023/03/26 02:05:53;;;;;;;21.10;5.67;;;;;;;8.03;85.13;100210.69;5095134;28;20207;-71
2023/03/26 02:08:30;;;;;;;20.83;6.33;;;;;;;8.03;84.64;100214.22;5094819;28;20182;-71
2023/03/26 02:11:00;;;;;;;17.17;5.07;;;;;;;7.97;85.09;100198.63;5076355;28;20683;-71
2023/03/26 02:13:27;;;;;;;15.17;5.43;;;;;;;8.00;84.89;100198.44;5093178;28;20299;-70
2023/03/26 02:15:56;;;;;;;18.00;5.17;;;;;;;7.91;85.69;100193.75;5094275;28;20210;-70
2023/03/26 02:18:23;;;;;;;14.93;5.00;;;;;;;7.91;84.94;100191.06;5094369;28;20186;-72
2023/03/26 02:20:54;;;;;;;12.70;5.33;;;;;;;7.89;85.00;100193.00;5094271;28;20678;-71
2023/03/26 02:23:21;;;;;;;15.27;5.47;;;;;;;7.93;85.36;100185.66;5094210;28;20214;-70
2023/03/26 02:25:47;;;;;;;26.97;5.53;;;;;;;7.94;84.94;100172.19;5092794;28;20221;-70
2023/03/26 02:28:15;;;;;;;13.50;4.40;;;;;;;7.95;84.33;100168.56;5075991;28;20737;-70
2023/03/26 02:30:44;;;;;;;21.90;5.80;;;;;;;7.84;84.17;100161.31;5076189;28;20221;-70
2023/03/26 02:33:14;;;;;;;14.93;4.93;;;;;;;7.81;84.22;100176.69;5093945;28;20725;-70
2023/03/26 02:35:44;;;;;;;21.13;5.53;;;;;;;7.80;83.97;100172.28;5075719;28;20227;-69
2023/03/26 02:38:13;;;;;;;15.80;3.90;;;;;;;7.76;84.39;100168.16;5094304;28;20166;-69
2023/03/26 02:40:40;;;;;;;12.97;4.13;;;;;;;7.69;84.24;100174.88;5076040;28;20660;-70
2023/03/26 02:43:07;;;;;;;19.00;5.37;;;;;;;7.68;84.73;100168.66;5075563;28;20210;-70
2023/03/26 02:45:35;;;;;;;22.87;5.50;;;;;;;7.71;85.21;100168.47;5076537;28;20301;-70
2023/03/26 02:48:20;;;;;;;15.93;6.07;;;;;;;7.70;85.15;100166.75;5094171;28;20181;-70
2023/03/26 02:51:01;;;;;;;19.57;5.37;;;;;;;7.74;84.70;100170.06;5075720;28;20178;-70
2023/03/26 02:53:52;;;;;;;24.57;5.27;;;;;;;7.72;85.24;100164.84;5092248;28;20307;-69
2023/03/26 02:56:44;;;;;;;14.17;4.77;;;;;;;7.77;85.24;100168.03;5075360;28;20237;-70
2023/03/26 02:59:20;;;;;;;18.67;4.63;;;;;;;7.78;85.51;100167.09;5076106;28;20197;-70
2023/03/26 03:01:56;;;;;;;21.13;5.10;;;;;;;7.77;85.17;100148.53;5075791;28;20189;-70
2023/03/26 03:04:22;;;;;;;21.70;4.73;;;;;;;7.81;85.01;100153.53;5075380;28;20210;-70
2023/03/26 03:06:51;;;;;;;29.97;5.50;;;;;;;7.84;84.72;100141.81;5075462;28;20197;-70
2023/03/26 03:09:18;;;;;;;31.00;7.30;;;;;;;7.82;84.69;100144.56;5075678;28;20247;-70
2023/03/26 03:12:17;;;;;;;20.20;4.93;;;;;;;7.83;84.49;100135.63;5059519;28;20251;-70
2023/03/26 03:14:44;;;;;;;14.13;4.77;;;;;;;7.81;84.85;100131.38;5075829;28;20201;-70
2023/03/26 03:17:10;;;;;;;19.20;5.30;;;;;;;7.82;84.36;100135.72;5075375;28;20203;-70
2023/03/26 03:19:36;;;;;;;16.03;4.57;;;;;;;7.79;84.16;100127.94;5075317;28;20186;-70
2023/03/26 03:22:03;;;;;;;19.40;5.47;;;;;;;7.77;84.63;100120.06;5075541;28;20221;-70
2023/03/26 03:24:32;;;;;;;13.17;4.70;;;;;;;7.66;84.58;100112.81;5075954;28;20221;-69
2023/03/26 03:26:59;;;;;;;22.87;5.50;;;;;;;7.58;84.92;100104.50;5075161;28;20197;-69
2023/03/26 03:29:31;;;;;;;26.50;5.37;;;;;;;7.54;85.22;100099.47;5075186;28;20660;-69
2023/03/26 03:32:18;;;;;;;34.07;6.23;;;;;;;7.50;85.09;100093.53;5092203;28;20239;-69
2023/03/26 03:34:49;;;;;;;9.20;5.07;;;;;;;7.43;85.14;100090.41;5075035;28;20247;-69
2023/03/26 03:37:17;;;;;;;17.07;4.73;;;;;;;7.38;85.39;100097.88;5075135;28;20190;-69
2023/03/26 03:39:49;;;;;;;17.07;4.63;;;;;;;7.38;85.39;100095.22;5075125;28;20627;-69
2023/03/26 03:42:18;;;;;;;15.10;5.10;;;;;;;7.35;85.02;100094.56;5074954;28;20189;-69
2023/03/26 03:44:47;;;;;;;12.50;4.23;;;;;;;7.32;85.34;100100.94;5075083;28;20307;-69
2023/03/26 03:47:33;;;;;;;6.43;3.73;;;;;;;7.29;84.88;100103.00;5093063;28;20560;-69
2023/03/26 03:49:59;;;;;;;17.33;4.57;;;;;;;7.25;85.05;100097.00;5075006;28;20672;-69
2023/03/26 03:52:26;;;;;;;13.60;3.93;;;;;;;7.21;84.99;100090.22;5074903;28;20685;-69
2023/03/26 03:54:56;;;;;;;17.10;3.57;;;;;;;7.15;85.08;100090.59;5074844;28;20682;-69
2023/03/26 03:57:35;;;;;;;13.83;4.53;;;;;;;7.12;85.28;100094.34;5075299;28;20197;-69
2023/03/26 04:00:08;;;;;;;15.87;5.03;;;;;;;7.07;85.43;100088.47;5074946;28;20210;-69
2023/03/26 04:02:41;;;;;;;17.73;4.03;;;;;;;7.02;85.89;100086.13;5076888;28;20220;-68
2023/03/26 04:05:10;;;;;;;12.40;4.53;;;;;;;6.93;85.86;100088.53;5095031;28;20186;-68
2023/03/26 04:07:42;;;;;;;21.50;4.50;;;;;;;6.89;85.51;100082.56;5079348;28;20590;-68
2023/03/26 04:10:25;;;;;;;20.43;3.73;;;;;;;6.85;85.62;100077.53;5096872;28;20174;-69
2023/03/26 04:13:11;;;;;;;15.37;4.40;;;;;;;6.79;86.43;100077.00;5097295;28;20294;-69
2023/03/26 04:15:53;;;;;;;26.73;5.03;;;;;;;6.84;86.31;100076.69;5097176;28;20206;-70
2023/03/26 04:18:22;;;;;;;10.67;4.30;;;;;;;6.82;86.09;100075.94;5096236;28;20198;-70
2023/03/26 04:20:49;;;;;;;12.20;4.70;;;;;;;6.85;86.44;100064.22;5078449;28;20209;-69
2023/03/26 04:23:21;;;;;;;12.80;4.20;;;;;;;6.84;86.45;100060.72;5078466;28;20304;-69
2023/03/26 04:25:53;;;;;;;12.43;4.50;;;;;;;6.84;86.64;100059.88;5078462;28;20652;-69
2023/03/26 04:28:45;;;;;;;10.20;4.40;;;;;;;6.84;86.49;100055.41;5078583;28;20190;-69
2023/03/26 04:31:22;;;;;;;18.63;4.27;;;;;;;6.91;86.47;100047.88;5078337;28;20246;-69
2023/03/26 04:33:55;;;;;;;14.37;4.07;;;;;;;6.89;86.30;100050.63;5078228;28;20224;-69
2023/03/26 04:36:26;;;;;;;21.10;5.23;;;;;;;6.90;86.66;100046.19;5078208;28;20201;-69
2023/03/26 04:38:53;;;;;;;21.30;5.37;;;;;;;6.92;86.46;100047.78;5078499;28;20592;-70
2023/03/26 04:41:29;;;;;;;9.27;4.60;;;;;;;6.92;86.17;100044.22;5078423;28;20190;-69
2023/03/26 04:44:00;;;;;;;23.10;5.47;;;;;;;6.93;86.21;100037.97;5095147;28;20209;-70
2023/03/26 04:46:54;;;;;;;12.67;4.27;;;;;;;6.95;86.24;100031.59;5093195;28;20201;-69
2023/03/26 04:49:28;;;;;;;7.83;3.83;;;;;;;6.86;85.68;100020.72;5078548;28;20243;-69
2023/03/26 04:51:54;;;;;;;15.50;3.83;;;;;;;6.77;85.70;100025.69;5096320;28;20631;-69
2023/03/26 04:54:46;;;;;;;21.37;4.10;;;;;;;6.73;86.06;100026.88;5095763;28;20247;-69
2023/03/26 04:57:24;;;;;;;14.93;4.80;;;;;;;6.75;86.01;100022.31;5077811;28;20262;-69
2023/03/26 04:59:57;;;;;;;11.60;4.47;;;;;;;6.74;85.96;100019.72;5078066;28;20193;-69
2023/03/26 05:02:24;;;;;;;10.63;3.17;;;;;;;6.74;85.99;100012.59;5078490;28;20219;-69
2023/03/26 05:04:53;;;;;;;13.63;4.00;;;;;;;6.74;85.49;100012.59;5078550;28;20189;-69
2023/03/26 05:07:22;;;;;;;12.13;3.73;;;;;;;6.73;85.81;100010.06;5078413;28;20540;-69
2023/03/26 05:09:53;;;;;;;9.43;4.17;;;;;;;6.76;86.47;100004.53;5077638;28;20189;-69
2023/03/26 05:12:32;;;;;;;9.40;3.70;;;;;;;6.77;86.08;100007.06;5077967;28;20248;-69
2023/03/26 05:15:04;;;;;;;5.63;2.97;;;;;;;6.82;86.07;99999.63;5077238;28;20185;-69
2023/03/26 05:17:50;;;;;;;9.63;3.63;;;;;;;6.82;86.12;99998.75;5077718;28;20200;-69
2023/03/26 05:20:28;;;;;;;11.23;4.33;;;;;;;6.81;86.25;99997.06;5095483;28;20682;-70
2023/03/26 05:22:55;;;;;;;18.97;7.00;;;;;;;6.80;86.15;99985.59;5095359;28;20202;-69
2023/03/26 05:25:28;;;;;;;16.43;4.63;;;;;;;6.78;85.90;99982.16;5077305;28;20177;-69
2023/03/26 05:27:55;;;;;;;13.23;3.77;;;;;;;6.78;86.51;99982.16;5093941;28;20683;-69
2023/03/26 05:30:26;;;;;;;9.53;3.47;;;;;;;6.81;86.33;99973.13;5077142;28;20178;-69
2023/03/26 05:32:57;;;;;;;17.20;4.20;;;;;;;6.84;86.30;99975.56;5077267;28;20216;-69
2023/03/26 05:35:29;;;;;;;9.70;3.50;;;;;;;6.82;86.69;99969.50;5077183;28;20300;-69
2023/03/26 05:37:56;;;;;;;10.37;3.07;;;;;;;6.83;86.95;99968.56;5077545;28;20198;-69
2023/03/26 05:40:24;;;;;;;10.77;3.20;;;;;;;6.86;86.50;99957.69;5076954;28;20693;-69
2023/03/26 05:42:56;;;;;;;19.23;3.67;;;;;;;6.88;86.49;99957.59;5077474;28;20216;-69
2023/03/26 05:45:25;;;;;;;11.80;4.50;;;;;;;6.88;87.10;99954.94;5095260;28;20186;-69
2023/03/26 05:47:54;;;;;;;9.27;4.20;;;;;;;6.86;87.37;99946.19;5077109;28;20197;-69
2023/03/26 05:50:23;;;;;;;13.23;4.10;;;;;;;6.88;87.45;99941.63;5077600;28;20197;-69
2023/03/26 05:52:53;;;;;;;10.73;3.77;;;;;;;6.87;87.87;99945.22;5077201;28;20299;-69
2023/03/26 05:55:45;;;;;;;11.40;4.53;;;;;;;6.82;88.05;99941.09;5077489;28;20213;-69
2023/03/26 05:58:32;;;;;;;14.97;5.10;;;;;;;6.91;87.52;99938.75;5095299;28;20182;-69
2023/03/26 06:01:24;;;;;;;12.37;4.73;;;;;;;6.95;88.12;99926.94;5056745;28;20257;-69
2023/03/26 06:04:11;;;;;;;9.50;4.60;;;;;;;7.02;87.96;99930.88;5095177;28;20285;-69
2023/03/26 06:06:45;;;;;;;21.77;5.17;;;;;;;7.05;87.19;99927.13;5076399;28;20177;-69
2023/03/26 06:09:12;;;;;;;15.37;5.60;;;;;;;6.92;88.19;99917.34;5093295;28;20284;-69
2023/03/26 06:11:39;;;;;;;16.10;5.40;;;;;;;6.89;88.97;99912.22;5076603;28;20200;-69
2023/03/26 06:14:06;;;;;;;16.77;6.17;;;;;;;6.88;88.88;99907.88;5076251;28;20213;-69
2023/03/26 06:16:35;;;;;;;16.43;5.90;;;;;;;6.89;88.98;99906.03;5076718;28;20263;-69
2023/03/26 06:19:15;;;;;;;16.83;5.87;;;;;;;6.93;89.26;99899.56;5076723;28;20193;-69
2023/03/26 06:22:07;;;;;;;15.77;5.17;;;;;;;6.97;89.72;99907.22;5091212;28;20259;-69
2023/03/26 06:24:51;;;;;;;18.00;5.83;;;;;;;6.99;89.54;99893.78;5076438;28;20232;-69
2023/03/26 06:27:40;;;;;;;14.33;5.50;;;;;;;7.07;89.08;99898.59;5075359;28;20270;-69
2023/03/26 06:30:23;;;;;;;12.83;5.17;;;;;;;7.16;88.90;99900.59;5076074;28;20192;-69
2023/03/26 06:33:01;;;;;;;11.00;5.30;;;;;;;7.18;89.04;99901.31;5075944;28;20217;-69
2023/03/26 06:35:33;;;;;;;36.50;12.27;;;;;;;7.21;89.00;99901.97;5076074;28;20196;-69
2023/03/26 06:38:00;;;;;;;27.00;9.00;;;;;;;7.24;89.10;99909.75;5075813;28;20190;-69
2023/03/26 06:40:28;;;;;;;21.17;5.60;;;;;;;7.21;89.13;99906.47;5075878;28;20250;-70
2023/03/26 06:43:07;;;;;;;15.33;5.80;;;;;;;7.24;88.98;99909.75;5076025;28;20239;-69
2023/03/26 06:46:05;;;;;;;19.17;6.47;;;;;;;7.26;88.69;99904.31;5092958;28;20739;-69
2023/03/26 06:48:50;;;;;;;11.33;4.73;;;;;;;7.23;89.58;99909.84;5094417;28;20276;-69
2023/03/26 06:51:26;;;;;;;11.40;4.43;;;;;;;7.32;89.24;99913.66;5094389;28;20174;-69
2023/03/26 06:54:16;;;;;;;5.43;2.90;;;;;;;7.36;88.88;99901.84;5075828;28;20217;-69
2023/03/26 06:56:55;;;;;;;10.40;3.90;;;;;;;7.36;89.35;99905.34;5075497;28;20204;-69
2023/03/26 06:59:38;;;;;;;8.00;2.90;;;;;;;7.45;89.31;99904.69;5076411;28;20184;-69
2023/03/26 07:02:23;;;;;;;6.80;3.83;;;;;;;7.44;88.68;99902.13;5093833;28;20659;-69
2023/03/26 07:05:08;;;;;;;18.90;4.47;;;;;;;7.52;88.73;99897.13;5094097;28;20212;-69
2023/03/26 07:07:53;;;;;;;14.10;4.20;;;;;;;7.52;88.50;99896.25;5093887;28;20588;-70
2023/03/26 07:10:38;;;;;;;13.70;4.10;;;;;;;7.56;88.71;99895.06;5094116;28;20547;-70
2023/03/26 07:13:15;;;;;;;8.70;5.70;;;;;;;7.63;88.91;99888.31;5075358;28;20217;-69
2023/03/26 07:16:00;;;;;;;9.70;5.67;;;;;;;7.66;88.69;99885.41;5093714;28;20205;-71
2023/03/26 07:18:38;;;;;;;6.83;4.90;;;;;;;7.66;88.54;99872.97;5075333;28;20188;-71
2023/03/26 07:21:08;;;;;;;10.13;5.73;;;;;;;7.76;88.58;99875.81;5075259;28;20289;-71
2023/03/26 07:23:35;;;;;;;8.60;5.27;;;;;;;7.78;88.75;99871.22;5092011;28;20214;-69
2023/03/26 07:27:02;;;;;;;21.57;5.27;;;;;;;7.80;89.18;99866.59;5074311;28;20208;-69
2023/03/26 07:29:55;;;;;;;10.50;4.87;;;;;;;7.77;88.95;99866.84;5066566;28;20245;-69
2023/03/26 07:32:49;;;;;;;8.63;3.87;;;;;;;7.77;89.19;99868.66;5092505;28;20235;-69
2023/03/26 07:35:49;;;;;;;9.67;4.07;;;;;;;7.76;89.14;99861.63;5093786;28;20184;-69
2023/03/26 07:38:46;;;;;;;7.57;4.00;;;;;;;7.74;89.07;99855.56;5093825;28;20170;-70
2023/03/26 07:41:49;;;;;;;7.37;3.93;;;;;;;7.78;89.17;99852.56;5098031;28;20180;-70
2023/03/26 07:45:00;;;;;;;7.83;3.90;;;;;;;7.84;89.15;99845.91;5081210;28;20204;-70
2023/03/26 07:47:41;;;;;;;10.70;4.30;;;;;;;7.87;89.33;99837.69;5079223;28;20182;-70
2023/03/26 07:50:23;;;;;;;4.47;3.33;;;;;;;7.90;89.46;99837.44;5096067;28;20292;-70
2023/03/26 07:53:06;;;;;;;8.47;4.50;;;;;;;7.94;89.69;99836.25;5079861;28;20243;-70
2023/03/26 07:56:00;;;;;;;9.70;6.03;;;;;;;7.95;89.87;99834.44;5095882;28;20182;-70
2023/03/26 07:58:55;;;;;;;9.50;6.70;;;;;;;7.94;89.65;99830.91;5079027;28;20662;-70
2023/03/26 08:02:03;;;;;;;11.50;6.93;;;;;;;7.95;89.23;99824.63;5095777;28;20205;-70
2023/03/26 08:04:59;;;;;;;13.63;4.40;;;;;;;7.95;89.60;99823.75;5078869;28;20664;-70
2023/03/26 08:08:01;;;;;;;6.23;4.53;;;;;;;7.92;89.62;99816.00;5078702;28;20285;-70
2023/03/26 08:11:01;;;;;;;10.50;4.23;;;;;;;8.00;89.57;99818.97;5096429;28;20188;-70
2023/03/26 08:13:50;;;;;;;9.53;4.03;;;;;;;8.03;89.37;99810.72;5078901;28;20210;-70
2023/03/26 08:16:22;;;;;;;9.33;4.47;;;;;;;8.00;89.80;99814.47;5096720;28;20192;-70
2023/03/26 08:19:09;;;;;;;7.13;4.53;;;;;;;8.04;89.67;99817.75;5096759;28;20174;-72
2023/03/26 08:21:46;;;;;;;13.50;6.50;;;;;;;7.99;89.25;99812.75;5096897;28;20273;-72
2023/03/26 08:24:26;;;;;;;16.90;6.33;;;;;;;7.98;89.93;99805.72;5097034;28;20292;-70
2023/03/26 08:27:37;;;;;;;6.53;3.93;;;;;;;7.94;89.61;99812.25;5096396;28;20196;-70
2023/03/26 08:30:17;;;;;;;10.67;4.20;;;;;;;7.96;89.59;99810.34;5092033;28;20244;-70
2023/03/26 08:32:53;;;;;;;7.33;3.70;;;;;;;7.86;90.01;99809.34;5096581;28;20239;-70
2023/03/26 08:35:20;;;;;;;9.30;4.47;;;;;;;7.86;89.88;99804.00;5096704;28;20180;-72
2023/03/26 08:37:46;;;;;;;15.10;6.40;;;;;;;7.83;90.47;99802.41;5096837;28;20224;-71
2023/03/26 08:40:18;;;;;;;14.17;6.77;;;;;;;7.76;90.66;99803.84;5096318;28;20178;-72
2023/03/26 08:43:02;;;;;;;12.07;5.17;;;;;;;7.65;90.80;99812.63;5096782;28;20237;-71
2023/03/26 08:45:56;;;;;;;15.00;6.67;;;;;;;7.68;91.06;99808.88;5078534;28;20602;-71
2023/03/26 08:49:00;;;;;;;17.33;6.67;;;;;;;7.70;91.87;99806.13;5096437;28;20529;-71
2023/03/26 08:51:29;;;;;;;15.97;4.83;;;;;;;7.74;92.03;99795.13;5095574;28;20178;-71
2023/03/26 08:54:19;;;;;;;8.17;5.77;;;;;;;7.61;92.34;99797.84;5096206;28;20216;-73
2023/03/26 08:57:20;;;;;;;19.83;6.03;;;;;;;7.63;92.40;99803.91;5082946;28;20805;-73
2023/03/26 09:00:28;;;;;;;12.00;5.60;;;;;;;7.73;91.97;99795.22;5078132;28;20197;-72
2023/03/26 09:03:07;;;;;;;11.80;6.10;;;;;;;7.64;92.10;99804.78;5096358;28;20206;-71
2023/03/26 09:05:43;;;;;;;10.47;7.27;;;;;;;7.64;92.88;99800.28;5096368;28;20174;-71
2023/03/26 09:08:24;;;;;;;9.93;4.93;;;;;;;7.72;92.27;99799.69;5096052;28;20183;-71
2023/03/26 09:11:17;;;;;;;6.37;5.80;;;;;;;7.78;92.64;99796.59;5078373;28;20289;-71
2023/03/26 09:14:21;;;;;;;8.53;5.27;;;;;;;7.74;92.26;99803.09;5077420;28;20209;-71
2023/03/26 09:17:19;;;;;;;11.40;5.63;;;;;;;7.74;92.83;99805.78;5095808;28;20201;-73
2023/03/26 09:20:13;;;;;;;7.80;5.30;;;;;;;7.78;92.86;99809.03;5095725;28;20178;-72
2023/03/26 09:22:58;;;;;;;10.67;5.20;;;;;;;7.77;92.89;99796.69;5105886;28;20217;-71
2023/03/26 09:25:52;;;;;;;8.77;4.73;;;;;;;7.74;92.39;99792.44;5115863;28;20612;-68
2023/03/26 09:28:45;;;;;;;6.97;4.97;;;;;;;7.71;92.73;99791.81;5113385;28;20185;-71
2023/03/26 09:31:39;;;;;;;6.47;4.67;;;;;;;7.73;92.37;99795.22;5096189;28;20193;-71
2023/03/26 09:34:31;;;;;;;8.60;5.90;;;;;;;7.75;93.11;99793.28;5115884;28;20215;-71
2023/03/26 09:37:11;;;;;;;8.60;5.27;;;;;;;7.69;92.97;99785.78;5114402;28;20254;-71
2023/03/26 09:39:50;;;;;;;7.63;4.17;;;;;;;7.74;93.37;99788.94;5114542;28;20193;-71
2023/03/26 09:42:24;;;;;;;15.50;4.87;;;;;;;7.71;93.06;99790.03;5115035;28;20185;-71
2023/03/26 09:45:07;;;;;;;9.90;5.40;;;;;;;7.72;93.07;99791.72;5115694;28;20174;-72
2023/03/26 09:47:52;;;;;;;13.23;4.87;;;;;;;7.72;93.02;99785.53;5115363;28;20211;-71
2023/03/26 09:50:37;;;;;;;9.40;4.33;;;;;;;7.72;93.28;99788.19;5115889;28;20173;-73
2023/03/26 09:53:22;;;;;;;12.40;6.20;;;;;;;7.77;93.67;99791.38;5097018;28;20633;-71
2023/03/26 09:56:07;;;;;;;10.00;5.70;;;;;;;7.76;94.07;99785.19;5115531;28;20184;-71
2023/03/26 09:59:05;;;;;;;4.90;4.43;;;;;;;7.82;94.13;99784.72;5115472;28;20173;-73
2023/03/26 10:01:46;;;;;;;11.07;5.10;;;;;;;7.77;93.60;99784.22;5096853;28;20604;-71
2023/03/26 10:04:37;;;;;;;6.83;5.50;;;;;;;7.78;93.87;99788.59;5114999;28;20208;-71
2023/03/26 10:07:31;;;;;;;14.70;5.03;;;;;;;7.79;93.18;99789.44;5115387;28;20219;-71
2023/03/26 10:10:13;;;;;;;8.50;4.97;;;;;;;7.87;93.79;99779.88;5115559;28;20272;-73
2023/03/26 10:12:50;;;;;;;8.37;5.43;;;;;;;7.91;94.29;99774.34;5096847;28;20240;-72
2023/03/26 10:15:53;;;;;;;10.23;5.33;;;;;;;7.89;93.72;99774.44;5115133;28;20176;-71
2023/03/26 10:18:34;;;;;;;8.80;4.60;;;;;;;7.77;93.18;99773.56;5115092;28;20592;-73
2023/03/26 10:21:31;;;;;;;5.00;4.60;;;;;;;7.76;93.50;99779.84;5114737;28;20173;-73
2023/03/26 10:24:07;;;;;;;5.83;3.77;;;;;;;7.76;93.51;99777.19;5114924;28;20287;-71
2023/03/26 10:26:47;;;;;;;10.97;4.20;;;;;;;7.86;93.47;99770.19;5080170;28;20249;-71
2023/03/26 10:30:15;;;;;;;7.13;3.20;;;;;;;7.91;92.97;99774.34;5115065;28;20185;-71
2023/03/26 10:33:05;;;;;;;3.27;3.07;;;;;;;7.96;91.84;99770.34;5114403;28;20308;-71
2023/03/26 10:35:52;;;;;;;2.70;2.60;;;;;;;7.93;91.09;99765.25;5114717;28;20185;-71
2023/03/26 10:38:25;;;;;;;3.60;3.40;;;;;;;7.97;91.39;99765.84;5114638;28;20193;-71
2023/03/26 10:41:03;;;;;;;4.37;4.00;;;;;;;8.10;91.16;99766.63;5115167;28;20521;-71
2023/03/26 10:43:53;;;;;;;10.57;3.33;;;;;;;8.03;90.17;99766.22;5096039;28;20703;-71
2023/03/26 10:46:54;;;;;;;5.50;2.50;;;;;;;8.09;90.42;99765.78;5114877;28;20260;-71
2023/03/26 10:50:00;;;;;;;8.70;3.13;;;;;;;8.19;89.73;99765.03;5114747;28;20181;-71
2023/03/26 10:52:36;;;;;;;3.80;3.00;;;;;;;8.16;89.33;99762.63;5015153;28;20184;-71
2023/03/26 10:55:30;;;;;;;8.90;2.57;;;;;;;8.14;89.60;99767.22;5103571;28;20673;-71
2023/03/26 10:58:09;;;;;;;3.20;2.93;;;;;;;8.15;90.25;99761.78;5114912;28;20595;-71
2023/03/26 11:00:45;;;;;;;2.47;2.37;;;;;;;8.24;90.04;99754.88;5114601;28;20164;-71
2023/03/26 11:03:37;;;;;;;4.57;3.10;;;;;;;8.29;89.03;99758.88;5096075;28;20242;-73
2023/03/26 11:06:24;;;;;;;3.90;2.23;;;;;;;8.29;88.68;99758.03;5113973;28;20260;-72
2023/03/26 11:09:00;;;;;;;6.07;2.73;;;;;;;8.36;88.73;99758.41;5114532;28;20173;-72
2023/03/26 11:11:35;;;;;;;2.30;2.10;;;;;;;8.37;88.57;99762.78;5113908;28;20535;-72
2023/03/26 11:14:24;;;;;;;3.00;2.80;;;;;;;8.43;88.20;99759.66;5113908;28;20290;-71
2023/03/26 11:17:30;;;;;;;6.73;2.43;;;;;;;8.37;88.23;99754.78;5114026;28;20201;-71
2023/03/26 11:20:19;;;;;;;2.27;2.17;;;;;;;8.51;88.59;99760.75;5114098;28;20625;-71
2023/03/26 11:22:58;;;;;;;2.80;2.70;;;;;;;8.56;88.13;99752.38;5114102;28;20607;-71
2023/03/26 11:25:27;;;;;;;2.90;2.80;;;;;;;8.56;87.95;99759.53;5114039;28;20218;-71
2023/03/26 11:28:04;;;;;;;4.30;2.20;;;;;;;8.68;88.04;99755.91;5113601;28;20260;-71
2023/03/26 11:30:49;;;;;;;3.03;2.90;;;;;;;8.51;87.83;99752.75;5113989;28;20532;-71
2023/03/26 11:33:22;;;;;;;3.70;3.37;;;;;;;8.43;87.68;99757.84;5113846;28;20211;-71
2023/03/26 11:35:55;;;;;;;3.43;2.63;;;;;;;8.46;88.39;99760.25;5113650;28;20177;-72
2023/03/26 11:38:36;;;;;;;3.30;3.20;;;;;;;8.37;88.32;99760.94;5113775;28;20268;-72
2023/03/26 11:41:13;;;;;;;2.87;2.73;;;;;;;8.41;88.52;99750.94;5112306;28;20732;-72
2023/03/26 11:43:51;;;;;;;2.23;1.90;;;;;;;8.42;87.86;99753.47;5096135;28;20213;-72
2023/03/26 11:46:21;;;;;;;2.30;2.30;;;;;;;8.22;86.77;99756.81;5114606;28;20519;-72
2023/03/26 11:48:51;;;;;;;1.53;1.43;;;;;;;8.19;87.09;99765.03;5114382;28;20173;-73
2023/03/26 11:51:25;;;;;;;1.87;1.80;;;;;;;8.12;86.71;99766.47;5113473;28;20193;-73
2023/03/26 11:53:53;;;;;;;2.37;2.27;;;;;;;8.12;86.80;99767.34;5113427;28;20213;-73
2023/03/26 11:56:25;;;;;;;2.83;1.97;;;;;;;8.15;87.28;99758.25;5113457;28;20286;-73
2023/03/26 11:59:08;;;;;;;1.70;1.60;;;;;;;8.14;86.56;99759.22;5113672;28;20254;-73
2023/03/26 12:01:51;;;;;;;2.40;2.30;;;;;;;8.17;86.56;99753.66;5113740;28;20531;-73
2023/03/26 12:04:36;;;;;;;2.17;2.07;;;;;;;8.14;86.10;99764.53;5095117;28;20300;-71
2023/03/26 12:07:30;;;;;;;2.50;2.40;;;;;;;8.16;86.63;99760.78;5113676;28;20203;-71
2023/03/26 12:09:59;;;;;;;3.00;3.00;;;;;;;8.25;87.09;99757.41;5113603;28;20612;-72
2023/03/26 12:12:46;;;;;;;2.60;2.43;;;;;;;8.37;86.78;99757.44;5113642;28;20219;-71
2023/03/26 12:15:15;;;;;;;3.70;3.60;;;;;;;8.49;87.42;99754.69;5113797;28;20263;-72
2023/03/26 12:17:42;;;;;;;3.10;3.00;;;;;;;8.45;86.67;99747.03;5113200;28;20205;-72
2023/03/26 12:20:23;;;;;;;2.37;2.27;;;;;;;8.47;86.61;99753.94;5113178;28;20215;-72
2023/03/26 12:22:58;;;;;;;2.43;2.23;;;;;;;8.50;86.81;99747.53;5113575;28;20715;-72
2023/03/26 12:25:37;;;;;;;3.60;3.50;;;;;;;8.57;86.39;99751.44;5096638;28;20189;-73